createdAt,value
2022-11-16T00:00:22.930Z,86.02
2022-11-16T00:02:52.180Z,85.87
2022-11-16T00:05:23.063Z,85.46
2022-11-16T00:07:52.703Z,84.91
2022-11-16T00:10:19.880Z,85.91
2022-11-16T00:12:46.930Z,85.37
2022-11-16T00:15:13.987Z,85.20
2022-11-16T00:17:40.970Z,85.28
2022-11-16T00:20:08.775Z,85.44
2022-11-16T00:22:35.792Z,85.56
2022-11-16T00:25:02.816Z,85.80
2022-11-16T00:27:29.838Z,85.58
2022-11-16T00:29:56.801Z,85.83
2022-11-16T00:32:23.949Z,85.50
2022-11-16T00:34:50.985Z,85.08
2022-11-16T00:37:17.986Z,85.35
2022-11-16T00:39:45.004Z,84.84
2022-11-16T00:42:12.068Z,85.13
2022-11-16T00:44:39.049Z,85.45
2022-11-16T00:47:06.043Z,85.23
2022-11-16T00:49:33.143Z,84.99
2022-11-16T00:52:00.131Z,85.25
2022-11-16T00:54:27.105Z,84.92
2022-11-16T00:56:54.113Z,85.17
2022-11-16T00:59:21.116Z,85.37
2022-11-16T01:01:48.169Z,85.30
2022-11-16T01:04:15.288Z,85.63
2022-11-16T01:06:42.331Z,85.21
2022-11-16T01:09:09.325Z,85.60
2022-11-16T01:11:55.327Z,84.88
2022-11-16T01:14:22.377Z,85.41
2022-11-16T01:16:51.127Z,85.60
2022-11-16T01:19:18.146Z,85.52
2022-11-16T01:21:45.117Z,85.96
2022-11-16T01:24:12.091Z,86.88
2022-11-16T01:26:39.177Z,86.65
2022-11-16T01:29:06.224Z,86.79
2022-11-16T01:31:33.220Z,86.73
2022-11-16T01:34:00.189Z,86.52
2022-11-16T01:36:27.238Z,87.01
2022-11-16T01:38:54.405Z,86.62
2022-11-16T01:41:24.199Z,86.40
2022-11-16T01:43:55.878Z,86.23
2022-11-16T01:46:24.419Z,86.26
2022-11-16T01:49:04.299Z,86.91
2022-11-16T01:51:32.810Z,86.75
2022-11-16T01:54:03.200Z,86.78
2022-11-16T01:56:33.143Z,86.99
2022-11-16T01:59:00.278Z,86.56
2022-11-16T02:01:27.389Z,87.22
2022-11-16T02:03:54.745Z,86.90
2022-11-16T02:07:15.584Z,87.01
2022-11-16T02:10:44.722Z,87.06
2022-11-16T02:13:58.529Z,86.52
2022-11-16T02:17:04.212Z,86.69
2022-11-16T02:20:17.780Z,86.38
2022-11-16T02:23:10.328Z,86.57
2022-11-16T02:25:55.501Z,86.21
2022-11-16T02:28:25.282Z,86.33
2022-11-16T02:30:55.969Z,86.61
2022-11-16T02:33:29.594Z,86.82
2022-11-16T02:36:01.073Z,86.68
2022-11-16T02:38:32.240Z,88.01
2022-11-16T02:41:05.310Z,88.54
2022-11-16T02:43:37.959Z,88.88
2022-11-16T02:46:10.074Z,88.37
2022-11-16T02:48:46.509Z,88.85
2022-11-16T02:51:14.873Z,88.10
2022-11-16T02:53:52.803Z,87.71
2022-11-16T02:56:20.490Z,88.54
2022-11-16T02:58:48.201Z,87.93
2022-11-16T03:01:24.483Z,87.63
2022-11-16T03:04:01.330Z,87.60
2022-11-16T03:06:32.571Z,87.04
2022-11-16T03:09:07.699Z,87.15
2022-11-16T03:11:58.215Z,87.10
2022-11-16T03:14:35.468Z,87.66
2022-11-16T03:17:05.241Z,86.89
2022-11-16T03:20:07.694Z,87.40
2022-11-16T03:22:42.457Z,86.85
2022-11-16T03:25:13.302Z,87.01
2022-11-16T03:27:49.202Z,87.13
2022-11-16T03:30:28.607Z,87.37
2022-11-16T03:33:00.094Z,87.46
2022-11-16T03:35:31.032Z,87.54
2022-11-16T03:38:00.127Z,87.82
2022-11-16T03:40:31.099Z,87.70
2022-11-16T03:43:01.363Z,87.57
2022-11-16T03:45:29.776Z,88.00
2022-11-16T03:47:56.729Z,86.93
2022-11-16T03:50:23.764Z,87.20
2022-11-16T03:52:50.778Z,86.90
2022-11-16T03:55:17.775Z,87.11
2022-11-16T03:57:44.823Z,87.22
2022-11-16T04:00:12.938Z,87.11
2022-11-16T04:02:39.919Z,86.64
2022-11-16T04:05:25.618Z,87.26
2022-11-16T04:08:10.985Z,86.88
2022-11-16T04:10:56.761Z,87.30
2022-11-16T04:13:47.975Z,87.76
2022-11-16T04:16:33.437Z,88.08
2022-11-16T04:19:18.749Z,87.86
2022-11-16T04:22:20.057Z,87.55
2022-11-16T04:24:55.352Z,87.95
2022-11-16T04:27:47.737Z,88.21
2022-11-16T04:30:15.110Z,88.08
2022-11-16T04:33:00.296Z,87.98
2022-11-16T04:35:46.532Z,88.11
2022-11-16T04:38:13.794Z,87.85
2022-11-16T04:40:40.739Z,87.98
2022-11-16T04:43:07.712Z,87.88
2022-11-16T04:45:53.904Z,88.23
2022-11-16T04:48:21.363Z,88.44
2022-11-16T04:50:48.693Z,87.82
2022-11-16T04:53:16.116Z,88.01
2022-11-16T04:55:43.043Z,88.62
2022-11-16T04:58:10.006Z,87.88
2022-11-16T05:00:36.932Z,87.88
2022-11-16T05:03:05.535Z,87.86
2022-11-16T05:05:32.535Z,88.22
2022-11-16T05:07:59.565Z,87.89
2022-11-16T05:10:26.990Z,88.22
2022-11-16T05:12:53.914Z,88.28
2022-11-16T05:15:20.835Z,87.97
2022-11-16T05:17:47.891Z,88.55
2022-11-16T05:20:33.457Z,87.91
2022-11-16T05:23:00.473Z,88.33
2022-11-16T05:25:28.557Z,88.27
2022-11-16T05:27:58.231Z,88.44
2022-11-16T05:30:25.242Z,88.13
2022-11-16T05:32:52.130Z,88.15
2022-11-16T05:35:19.093Z,88.42
2022-11-16T05:37:45.953Z,88.42
2022-11-16T05:40:13.090Z,88.60
2022-11-16T05:42:39.999Z,88.21
2022-11-16T05:45:07.284Z,88.06
2022-11-16T05:47:34.211Z,87.92
2022-11-16T05:50:01.148Z,88.76
2022-11-16T05:52:28.093Z,88.51
2022-11-16T05:54:54.993Z,88.79
2022-11-16T05:57:21.923Z,88.70
2022-11-16T05:59:51.178Z,88.57
2022-11-16T06:02:18.102Z,88.01
2022-11-16T06:04:45.056Z,88.43
2022-11-16T06:07:11.988Z,88.21
2022-11-16T06:09:38.931Z,88.69
2022-11-16T06:12:06.032Z,88.42
2022-11-16T06:14:33.059Z,88.68
2022-11-16T06:16:59.970Z,88.87
2022-11-16T06:19:32.060Z,88.61
2022-11-16T06:21:59.384Z,88.69
2022-11-16T06:24:26.371Z,88.88
2022-11-16T06:26:53.278Z,88.29
2022-11-16T06:29:20.185Z,88.93
2022-11-16T06:31:47.132Z,88.66
2022-11-16T06:34:14.105Z,88.88
2022-11-16T06:36:41.042Z,88.62
2022-11-16T06:39:08.021Z,89.08
2022-11-16T06:41:40.194Z,89.37
2022-11-16T06:44:08.181Z,88.89
2022-11-16T06:46:35.118Z,88.50
2022-11-16T06:49:01.979Z,89.07
2022-11-16T06:51:28.922Z,88.56
2022-11-16T06:53:55.833Z,88.99
2022-11-16T06:56:22.761Z,88.47
2022-11-16T06:58:53.271Z,88.97
2022-11-16T07:01:20.548Z,88.72
2022-11-16T07:03:47.534Z,88.08
2022-11-16T07:06:14.882Z,88.00
2022-11-16T07:08:41.861Z,88.09
2022-11-16T07:11:09.901Z,88.10
2022-11-16T07:13:38.261Z,88.21
2022-11-16T07:16:07.586Z,87.58
2022-11-16T07:18:36.737Z,88.12
2022-11-16T07:21:12.094Z,87.68
2022-11-16T07:23:39.195Z,87.75
2022-11-16T07:26:07.932Z,88.11
2022-11-16T07:28:35.079Z,88.20
2022-11-16T07:31:03.944Z,88.42
2022-11-16T07:33:30.994Z,87.66
2022-11-16T07:36:12.148Z,88.30
2022-11-16T07:38:39.574Z,88.13
2022-11-16T07:41:09.551Z,88.19
2022-11-16T07:43:37.041Z,87.83
2022-11-16T07:48:58.287Z,87.93
2022-11-16T07:51:25.457Z,87.92
2022-11-16T07:53:56.187Z,88.26
2022-11-16T07:56:23.489Z,88.24
2022-11-16T07:58:50.530Z,88.94
2022-11-16T08:01:19.030Z,88.88
2022-11-16T08:03:47.027Z,88.12
2022-11-16T08:06:18.031Z,88.28
2022-11-16T08:08:45.228Z,88.16
2022-11-16T08:11:13.058Z,88.15
2022-11-16T08:13:41.404Z,88.01
2022-11-16T08:16:12.141Z,88.02
2022-11-16T08:18:40.253Z,87.25
2022-11-16T08:21:08.995Z,87.59
2022-11-16T08:23:36.347Z,87.81
2022-11-16T08:26:09.582Z,86.85
2022-11-16T08:28:37.490Z,87.62
2022-11-16T08:31:09.802Z,87.20
2022-11-16T08:33:36.740Z,87.28
2022-11-16T08:36:08.294Z,87.57
2022-11-16T08:38:42.529Z,87.41
2022-11-16T08:41:09.441Z,86.69
2022-11-16T08:43:36.476Z,87.51
2022-11-16T08:46:03.462Z,87.49
2022-11-16T08:48:31.188Z,87.95
2022-11-16T08:51:17.341Z,87.71
2022-11-16T08:53:45.418Z,88.12
2022-11-16T08:56:13.916Z,87.17
2022-11-16T08:58:47.615Z,87.54
2022-11-16T09:01:17.414Z,87.68
2022-11-16T09:03:45.046Z,86.86
2022-11-16T09:06:13.203Z,87.63
2022-11-16T09:08:42.881Z,87.27
2022-11-16T09:11:14.187Z,86.92
2022-11-16T09:13:41.054Z,86.71
2022-11-16T09:16:08.452Z,86.73
2022-11-16T09:18:35.965Z,86.37
2022-11-16T09:21:03.649Z,86.40
2022-11-16T09:23:30.568Z,86.79
2022-11-16T09:26:01.585Z,86.79
2022-11-16T09:28:28.656Z,87.11
2022-11-16T09:31:03.066Z,87.16
2022-11-16T09:33:31.753Z,86.86
2022-11-16T09:36:07.260Z,86.70
2022-11-16T09:41:39.858Z,86.59
2022-11-16T09:44:15.844Z,86.85
2022-11-16T09:46:49.946Z,86.57
2022-11-16T09:49:23.089Z,86.72
2022-11-16T09:51:54.234Z,86.39
2022-11-16T09:54:25.135Z,86.48
2022-11-16T09:56:57.567Z,86.88
2022-11-16T09:59:29.061Z,86.42
2022-11-16T10:02:21.623Z,86.22
2022-11-16T10:04:59.496Z,86.18
2022-11-16T10:07:33.502Z,86.31
2022-11-16T10:10:00.549Z,85.93
2022-11-16T10:12:48.264Z,86.21
2022-11-16T10:15:50.609Z,86.98
2022-11-16T10:18:17.485Z,86.94
2022-11-16T10:21:11.994Z,86.99
2022-11-16T10:24:16.212Z,87.22
2022-11-16T10:26:55.600Z,87.37
2022-11-16T10:29:40.498Z,87.36
2022-11-16T10:32:29.070Z,87.77
2022-11-16T10:35:09.382Z,87.45
2022-11-16T10:37:40.681Z,87.58
2022-11-16T10:40:18.806Z,87.56
2022-11-16T10:43:05.938Z,87.91
2022-11-16T10:45:43.617Z,87.99
2022-11-16T10:48:43.592Z,88.75
2022-11-16T10:51:11.102Z,87.94
2022-11-16T10:53:41.303Z,87.96
2022-11-16T10:56:13.739Z,88.51
2022-11-16T10:59:01.071Z,88.43
2022-11-16T11:01:39.857Z,88.37
2022-11-16T11:04:27.344Z,88.04
2022-11-16T11:06:56.905Z,87.96
2022-11-16T11:09:32.971Z,88.50
2022-11-16T11:12:20.254Z,88.66
2022-11-16T11:15:05.960Z,88.47
2022-11-16T11:17:35.714Z,88.48
2022-11-16T11:20:04.632Z,89.42
2022-11-16T11:22:43.265Z,89.88
2022-11-16T11:25:36.015Z,91.37
2022-11-16T11:28:31.950Z,91.36
2022-11-16T11:31:04.779Z,91.40
2022-11-16T11:33:39.890Z,91.15
2022-11-16T11:36:21.008Z,91.74
2022-11-16T11:39:07.553Z,91.53
2022-11-16T11:41:43.188Z,91.93
2022-11-16T11:44:12.998Z,91.82
2022-11-16T11:47:35.230Z,92.82
2022-11-16T11:49:42.352Z,91.30
2022-11-16T11:52:22.779Z,91.28
2022-11-16T11:54:55.005Z,91.93
2022-11-16T11:57:24.126Z,91.97
2022-11-16T11:59:54.691Z,91.92
2022-11-16T12:02:27.157Z,91.89
2022-11-16T12:05:05.927Z,91.82
2022-11-16T12:07:32.868Z,92.36
2022-11-16T12:10:20.921Z,91.95
2022-11-16T12:13:08.644Z,92.42
2022-11-16T12:15:46.678Z,92.56
2022-11-16T12:18:22.156Z,92.39
2022-11-16T12:21:14.980Z,92.53
2022-11-16T12:24:05.168Z,93.14
2022-11-16T12:26:41.541Z,93.13
2022-11-16T12:29:31.204Z,93.92
2022-11-16T12:32:09.512Z,93.01
2022-11-16T12:34:55.241Z,93.30
2022-11-16T12:37:33.898Z,92.58
2022-11-16T12:40:20.452Z,92.87
2022-11-16T12:42:53.358Z,93.36
2022-11-16T12:45:32.554Z,92.07
2022-11-16T12:48:18.555Z,92.95
2022-11-16T12:50:51.314Z,92.74
2022-11-16T12:53:33.342Z,92.71
2022-11-16T12:56:22.791Z,92.90
2022-11-16T12:59:11.125Z,93.45
2022-11-16T13:02:19.527Z,93.45
2022-11-16T13:04:57.774Z,94.02
2022-11-16T13:07:33.354Z,93.65
2022-11-16T13:10:24.804Z,93.76
2022-11-16T13:13:21.938Z,93.43
2022-11-16T13:15:48.052Z,93.26
2022-11-16T13:18:20.662Z,93.78
2022-11-16T13:20:50.279Z,92.92
2022-11-16T13:23:43.738Z,92.91
2022-11-16T13:26:24.609Z,93.19
2022-11-16T13:29:09.677Z,93.41
2022-11-16T13:32:16.381Z,93.08
2022-11-16T13:34:44.322Z,92.51
2022-11-16T13:37:39.103Z,92.50
2022-11-16T13:40:05.939Z,92.06
2022-11-16T13:42:44.136Z,91.33
2022-11-16T13:45:22.285Z,91.66
2022-11-16T13:47:51.310Z,91.79
2022-11-16T13:50:22.010Z,92.19
2022-11-16T13:55:59.875Z,92.20
2022-11-16T13:58:28.926Z,91.76
2022-11-16T14:01:08.572Z,92.14
2022-11-16T14:03:41.144Z,92.27
2022-11-16T14:06:31.088Z,92.96
2022-11-16T14:08:58.908Z,92.89
2022-11-16T14:11:35.029Z,93.66
2022-11-16T14:14:14.035Z,93.83
2022-11-16T14:16:45.479Z,93.91
2022-11-16T14:19:49.477Z,93.90
2022-11-16T14:22:36.973Z,93.67
2022-11-16T14:25:30.853Z,94.27
2022-11-16T14:28:14.024Z,94.32
2022-11-16T14:30:58.658Z,94.25
2022-11-16T14:33:33.512Z,94.60
2022-11-16T14:36:03.913Z,94.37
2022-11-16T14:38:35.443Z,94.22
2022-11-16T14:41:13.450Z,94.85
2022-11-16T14:43:44.770Z,94.83
2022-11-16T14:46:26.317Z,95.22
2022-11-16T14:48:56.310Z,94.97
2022-11-16T14:51:50.801Z,95.50
2022-11-16T14:54:39.303Z,95.25
2022-11-16T14:57:18.213Z,95.25
2022-11-16T14:59:45.121Z,95.07
2022-11-16T15:02:30.135Z,95.42
2022-11-16T15:04:57.339Z,95.20
2022-11-16T15:07:26.238Z,95.11
2022-11-16T15:09:56.723Z,95.13
2022-11-16T15:12:41.919Z,95.39
2022-11-16T15:15:17.134Z,95.34
2022-11-16T15:18:07.023Z,95.32
2022-11-16T15:20:37.758Z,95.06
2022-11-16T15:23:13.349Z,95.01
2022-11-16T15:25:46.233Z,95.10
2022-11-16T15:28:28.213Z,94.58
2022-11-16T15:30:58.966Z,95.21
2022-11-16T15:33:29.719Z,94.49
2022-11-16T15:35:57.317Z,94.37
2022-11-16T15:38:33.109Z,94.35
2022-11-16T15:41:02.729Z,94.59
2022-11-16T15:44:01.328Z,94.32
2022-11-16T15:46:33.348Z,94.07
2022-11-16T15:49:00.996Z,94.33
2022-11-16T15:51:33.874Z,94.50
2022-11-16T15:54:30.473Z,94.06
2022-11-16T15:57:08.186Z,93.89
2022-11-16T15:59:37.453Z,94.09
2022-11-16T16:02:05.003Z,93.58
2022-11-16T16:04:32.065Z,93.96
2022-11-16T16:07:00.323Z,93.94
2022-11-16T16:09:28.956Z,93.64
2022-11-16T16:12:11.087Z,94.04
2022-11-16T16:14:38.475Z,93.72
2022-11-16T16:17:05.404Z,93.38
2022-11-16T16:19:34.379Z,92.78
2022-11-16T16:22:02.102Z,93.02
2022-11-16T16:24:44.447Z,92.91
2022-11-16T16:27:16.742Z,92.92
2022-11-16T16:29:44.923Z,92.27
2022-11-16T16:32:30.548Z,92.40
2022-11-16T16:34:59.608Z,92.32
2022-11-16T16:37:28.219Z,92.01
2022-11-16T16:39:55.233Z,92.04
2022-11-16T16:42:22.385Z,92.51
2022-11-16T16:44:50.339Z,92.31
2022-11-16T16:47:20.879Z,92.33
2022-11-16T16:49:50.519Z,92.77
2022-11-16T16:52:18.165Z,92.47
2022-11-16T16:54:45.419Z,92.65
2022-11-16T16:57:16.742Z,92.56
2022-11-16T16:59:45.954Z,91.79
2022-11-16T17:02:13.637Z,91.83
2022-11-16T17:04:40.953Z,91.89
2022-11-16T17:07:07.910Z,92.36
2022-11-16T17:09:36.840Z,92.25
2022-11-16T17:12:03.852Z,92.63
2022-11-16T17:14:31.355Z,92.66
2022-11-16T17:16:59.041Z,92.40
2022-11-16T17:19:25.940Z,92.46
2022-11-16T17:21:52.909Z,92.56
2022-11-16T17:24:20.219Z,92.70
2022-11-16T17:26:48.534Z,92.55
2022-11-16T17:29:15.866Z,92.53
2022-11-16T17:31:44.325Z,92.20
2022-11-16T17:34:13.845Z,92.09
2022-11-16T17:36:42.092Z,92.46
2022-11-16T17:39:09.266Z,92.33
2022-11-16T17:41:36.371Z,92.89
2022-11-16T17:44:04.220Z,92.94
2022-11-16T17:46:31.151Z,92.48
2022-11-16T17:48:58.167Z,93.02
2022-11-16T17:51:26.159Z,92.15
2022-11-16T17:53:53.229Z,92.60
2022-11-16T17:56:26.326Z,92.94
2022-11-16T17:58:55.230Z,93.10
2022-11-16T18:01:22.751Z,92.56
2022-11-16T18:03:49.717Z,92.82
2022-11-16T18:06:21.831Z,92.72
2022-11-16T18:08:49.340Z,92.82
2022-11-16T18:11:20.952Z,91.74
2022-11-16T18:13:51.834Z,92.21
2022-11-16T18:16:21.291Z,92.28
2022-11-16T18:18:49.387Z,93.23
2022-11-16T18:21:20.829Z,92.27
2022-11-16T18:23:47.891Z,92.91
2022-11-16T18:26:21.347Z,93.60
2022-11-16T18:28:52.842Z,93.94
2022-11-16T18:31:22.939Z,93.74
2022-11-16T18:33:50.138Z,93.55
2022-11-16T18:36:18.917Z,93.36
2022-11-16T18:38:46.406Z,93.17
2022-11-16T18:41:13.259Z,93.35
2022-11-16T18:43:41.938Z,92.96
2022-11-16T18:46:09.111Z,93.41
2022-11-16T18:48:36.032Z,92.78
2022-11-16T18:51:04.947Z,93.83
2022-11-16T18:53:33.273Z,93.61
2022-11-16T18:56:00.595Z,92.97
2022-11-16T19:01:17.181Z,93.70
2022-11-16T19:03:44.344Z,93.84
2022-11-16T19:06:12.024Z,94.20
2022-11-16T19:08:40.596Z,94.04
2022-11-16T19:11:16.184Z,93.76
2022-11-16T19:13:44.398Z,93.67
2022-11-16T19:16:14.076Z,93.74
2022-11-16T19:18:41.225Z,92.94
2022-11-16T19:21:10.248Z,91.96
2022-11-16T19:23:39.262Z,92.71
2022-11-16T19:26:07.289Z,93.39
2022-11-16T19:28:38.294Z,92.30
2022-11-16T19:31:10.316Z,93.22
2022-11-16T19:33:38.346Z,92.70
2022-11-16T19:36:14.499Z,92.17
2022-11-16T19:38:42.012Z,93.05
2022-11-16T19:41:11.137Z,92.82
2022-11-16T19:43:38.902Z,92.33
2022-11-16T19:46:08.537Z,92.23
2022-11-16T19:48:35.983Z,92.86
2022-11-16T19:51:14.757Z,92.68
2022-11-16T19:53:41.687Z,93.00
2022-11-16T19:56:11.513Z,92.31
2022-11-16T19:58:38.803Z,92.52
2022-11-16T20:01:07.683Z,92.93
2022-11-16T20:03:35.216Z,92.56
2022-11-16T20:06:09.371Z,92.38
2022-11-16T20:08:37.327Z,92.80
2022-11-16T20:11:15.814Z,93.15
2022-11-16T20:13:43.243Z,92.86
2022-11-16T20:16:12.281Z,93.15
2022-11-16T20:18:40.948Z,93.08
2022-11-16T20:21:09.357Z,93.46
2022-11-16T20:23:37.637Z,92.89
2022-11-16T20:26:06.082Z,92.94
2022-11-16T20:28:38.366Z,92.55
2022-11-16T20:31:10.279Z,92.67
2022-11-16T20:33:37.411Z,92.79
2022-11-16T20:36:07.970Z,93.75
2022-11-16T20:38:36.783Z,93.45
2022-11-16T20:41:22.697Z,94.03
2022-11-16T20:43:57.832Z,94.52
2022-11-16T20:46:33.625Z,93.67
2022-11-16T20:49:02.040Z,93.59
2022-11-16T20:51:30.083Z,93.84
2022-11-16T20:53:58.211Z,94.28
2022-11-16T20:56:25.220Z,93.19
2022-11-16T20:58:52.146Z,93.01
2022-11-16T21:01:32.111Z,93.39
2022-11-16T21:04:01.831Z,93.59
2022-11-16T21:06:29.207Z,94.14
2022-11-16T21:08:57.023Z,94.73
2022-11-16T21:11:30.242Z,94.90
2022-11-16T21:14:16.413Z,94.67
2022-11-16T21:16:44.215Z,93.84
2022-11-16T21:19:11.858Z,94.47
2022-11-16T21:21:40.670Z,93.15
2022-11-16T21:24:10.813Z,93.98
2022-11-16T21:26:38.053Z,93.95
2022-11-16T21:29:05.569Z,93.42
2022-11-16T21:31:34.292Z,93.18
2022-11-16T21:34:01.334Z,93.54
2022-11-16T21:36:30.496Z,93.38
2022-11-16T21:38:58.304Z,92.67
2022-11-16T21:41:26.402Z,93.34
2022-11-16T21:43:53.536Z,93.08
2022-11-16T21:46:23.492Z,93.50
2022-11-16T21:48:51.374Z,92.22
2022-11-16T21:51:20.345Z,93.04
2022-11-16T21:53:47.959Z,92.51
2022-11-16T21:56:20.332Z,91.94
2022-11-16T21:58:50.035Z,91.85
2022-11-16T22:01:17.117Z,92.42
2022-11-16T22:03:44.987Z,92.47
2022-11-16T22:06:32.926Z,91.73
2022-11-16T22:09:00.450Z,92.11
2022-11-16T22:14:18.190Z,92.52
2022-11-16T22:16:45.250Z,92.89
2022-11-16T22:19:12.192Z,93.07
2022-11-16T22:21:39.174Z,92.56
2022-11-16T22:24:06.494Z,92.71
2022-11-16T22:26:33.591Z,92.67
2022-11-16T22:29:00.710Z,92.60
2022-11-16T22:31:27.741Z,93.18
2022-11-16T22:33:54.714Z,92.36
2022-11-16T22:36:21.710Z,91.90
2022-11-16T22:38:48.640Z,92.27
2022-11-16T22:41:15.703Z,92.44
2022-11-16T22:43:42.695Z,91.80
2022-11-16T22:46:11.153Z,91.73
2022-11-16T22:48:39.976Z,92.13
2022-11-16T22:51:18.382Z,91.72
2022-11-16T22:53:45.362Z,90.88
2022-11-16T22:56:12.747Z,92.17
2022-11-16T22:58:40.394Z,91.46
2022-11-16T23:01:09.617Z,91.30
2022-11-16T23:03:38.049Z,91.22
2022-11-16T23:06:06.898Z,90.97
2022-11-16T23:08:34.900Z,90.59
2022-11-16T23:11:25.294Z,90.40
2022-11-16T23:14:12.721Z,90.85
2022-11-16T23:16:40.763Z,90.81
2022-11-16T23:19:28.317Z,91.07
2022-11-16T23:22:14.892Z,91.35
2022-11-16T23:25:01.231Z,90.81
2022-11-16T23:27:32.423Z,91.50
2022-11-16T23:30:04.503Z,91.98
2022-11-16T23:32:34.950Z,92.02
2022-11-16T23:35:01.943Z,91.49
2022-11-16T23:37:28.889Z,91.46
2022-11-16T23:39:55.925Z,92.04
2022-11-16T23:42:41.572Z,92.41
2022-11-16T23:45:08.996Z,91.90
2022-11-16T23:47:36.030Z,91.88
2022-11-16T23:50:03.245Z,92.03
2022-11-16T23:52:30.223Z,92.09
2022-11-16T23:54:57.220Z,90.96
2022-11-16T23:57:24.215Z,92.56
2022-11-16T23:59:51.199Z,91.55
